createdAt,value
2023-04-09T00:02:51.467Z,1.63
2023-04-09T00:07:56.956Z,1.55
2023-04-09T00:13:03.175Z,1.96
2023-04-09T00:18:11.035Z,1.86
2023-04-09T00:23:17.580Z,2.27
2023-04-09T00:28:22.784Z,1.68
2023-04-09T00:33:33.564Z,2.24
2023-04-09T00:38:41.297Z,2.46
2023-04-09T00:43:46.878Z,2.22
2023-04-09T00:48:56.039Z,1.99
2023-04-09T00:54:01.511Z,1.87
2023-04-09T00:59:08.917Z,2.08
2023-04-09T01:04:18.063Z,2.48
2023-04-09T01:09:31.388Z,2.28
2023-04-09T01:14:46.977Z,1.75
2023-04-09T01:20:05.258Z,1.98
2023-04-09T01:25:21.777Z,1.88
2023-04-09T01:30:31.676Z,1.90
2023-04-09T01:35:37.150Z,1.99
2023-04-09T01:40:42.748Z,1.93
2023-04-09T01:45:51.834Z,2.05
2023-04-09T01:50:57.186Z,2.04
2023-04-09T01:56:06.265Z,2.33
2023-04-09T02:01:19.726Z,2.33
2023-04-09T02:06:40.694Z,2.49
2023-04-09T02:11:49.316Z,2.19
2023-04-09T02:16:57.494Z,1.93
2023-04-09T02:22:03.410Z,1.75
2023-04-09T02:27:11.426Z,1.93
2023-04-09T02:32:19.942Z,2.12
2023-04-09T02:37:25.705Z,1.79
2023-04-09T02:42:31.415Z,1.88
2023-04-09T02:47:39.697Z,1.87
2023-04-09T02:52:45.285Z,1.71
2023-04-09T02:57:50.783Z,1.63
2023-04-09T03:02:58.789Z,1.86
2023-04-09T03:08:04.911Z,2.49
2023-04-09T03:13:10.214Z,1.98
2023-04-09T03:18:19.521Z,2.04
2023-04-09T03:23:25.925Z,2.06
2023-04-09T03:28:31.494Z,2.57
2023-04-09T03:33:41.536Z,2.37
2023-04-09T03:38:50.619Z,2.19
2023-04-09T03:44:21.017Z,2.23
2023-04-09T03:49:59.583Z,2.40
2023-04-09T03:55:09.374Z,2.58
2023-04-09T04:00:21.490Z,2.62
2023-04-09T04:05:31.732Z,2.48
2023-04-09T04:10:41.484Z,2.43
2023-04-09T04:15:49.146Z,2.23
2023-04-09T04:21:01.565Z,2.41
2023-04-09T04:26:11.160Z,2.47
2023-04-09T04:31:16.884Z,2.51
2023-04-09T04:36:27.052Z,2.53
2023-04-09T04:41:33.881Z,2.78
2023-04-09T04:46:49.689Z,2.90
2023-04-09T04:51:57.650Z,3.74
2023-04-09T04:57:03.507Z,3.85
2023-04-09T05:02:18.218Z,4.26
2023-04-09T05:07:46.846Z,5.75
2023-04-09T05:12:52.946Z,7.89
2023-04-09T05:18:13.965Z,7.51
2023-04-09T05:23:21.966Z,8.74
2023-04-09T05:28:28.245Z,8.56
2023-04-09T05:33:43.855Z,8.51
2023-04-09T05:38:58.907Z,9.42
2023-04-09T05:44:04.123Z,10.39
2023-04-09T05:49:09.501Z,11.51
2023-04-09T05:54:18.995Z,13.28
2023-04-09T05:59:24.262Z,13.52
2023-04-09T06:04:29.781Z,14.58
2023-04-09T06:09:38.300Z,14.94
2023-04-09T06:14:43.890Z,15.32
2023-04-09T06:19:49.705Z,16.00
2023-04-09T06:24:58.549Z,15.96
2023-04-09T06:30:03.734Z,16.58
2023-04-09T06:35:11.240Z,16.82
2023-04-09T06:40:22.177Z,16.98
2023-04-09T06:45:28.239Z,17.29
2023-04-09T06:50:33.742Z,17.64
2023-04-09T06:55:44.091Z,17.76
2023-04-09T07:00:49.350Z,18.19
2023-04-09T07:05:54.736Z,17.05
2023-04-09T07:11:04.520Z,16.99
2023-04-09T07:16:09.780Z,13.71
2023-04-09T07:21:15.113Z,14.05
2023-04-09T07:26:23.508Z,12.13
2023-04-09T07:31:29.059Z,12.00
2023-04-09T07:36:34.619Z,11.06
2023-04-09T07:41:44.902Z,12.31
2023-04-09T07:46:50.249Z,12.86
2023-04-09T07:51:55.620Z,12.78
2023-04-09T07:57:06.234Z,13.65
2023-04-09T08:02:15.014Z,12.07
2023-04-09T08:07:23.860Z,12.08
2023-04-09T08:12:36.212Z,14.75
2023-04-09T08:17:46.592Z,14.93
2023-04-09T08:22:54.065Z,14.89
2023-04-09T08:28:02.869Z,16.09
2023-04-09T08:33:12.381Z,16.71
2023-04-09T08:38:21.630Z,17.26
2023-04-09T08:43:56.319Z,15.17
2023-04-09T08:49:05.810Z,16.59
2023-04-09T08:54:12.862Z,16.12
2023-04-09T08:59:23.666Z,15.43
2023-04-09T09:04:47.630Z,15.37
2023-04-09T09:09:58.844Z,14.80
2023-04-09T09:15:09.880Z,15.87
2023-04-09T09:20:30.367Z,16.01
2023-04-09T09:25:44.099Z,15.97
2023-04-09T09:30:53.216Z,15.34
2023-04-09T09:35:59.627Z,14.79
2023-04-09T09:41:23.314Z,15.19
2023-04-09T09:46:38.806Z,14.38
2023-04-09T09:51:45.825Z,15.11
2023-04-09T09:57:13.629Z,15.13
2023-04-09T10:02:27.279Z,14.81
2023-04-09T10:07:33.886Z,14.65
2023-04-09T10:12:42.274Z,14.03
2023-04-09T10:17:57.068Z,12.66
2023-04-09T10:23:09.185Z,12.95
2023-04-09T10:28:20.633Z,13.68
2023-04-09T10:33:31.787Z,13.27
2023-04-09T10:38:41.807Z,14.32
2023-04-09T10:43:53.112Z,13.37
2023-04-09T10:49:16.042Z,14.26
2023-04-09T10:54:56.126Z,13.19
2023-04-09T11:00:06.160Z,13.58
2023-04-09T11:05:29.584Z,13.72
2023-04-09T11:10:38.683Z,13.42
2023-04-09T11:15:45.153Z,13.79
2023-04-09T11:20:54.008Z,13.03
2023-04-09T11:26:00.184Z,13.33
2023-04-09T11:31:09.381Z,13.11
2023-04-09T11:36:18.533Z,13.39
2023-04-09T11:41:39.384Z,13.73
2023-04-09T11:46:51.605Z,13.68
2023-04-09T11:52:03.467Z,14.31
2023-04-09T11:57:09.476Z,14.76
2023-04-09T12:02:19.075Z,14.29
2023-04-09T12:07:36.412Z,15.31
2023-04-09T12:12:47.073Z,15.08
2023-04-09T12:17:57.652Z,15.18
2023-04-09T12:23:08.538Z,15.00
2023-04-09T12:28:18.789Z,13.92
2023-04-09T12:33:26.202Z,14.89
2023-04-09T12:38:44.715Z,15.07
2023-04-09T12:43:53.612Z,13.92
2023-04-09T12:49:06.477Z,14.78
2023-04-09T12:59:40.714Z,14.44
2023-04-09T13:04:53.519Z,15.33
2023-04-09T13:10:11.882Z,16.03
2023-04-09T13:15:23.354Z,16.24
2023-04-09T13:20:31.243Z,15.60
2023-04-09T13:25:46.601Z,14.99
2023-04-09T13:31:00.441Z,14.89
2023-04-09T13:36:08.930Z,15.58
2023-04-09T13:41:19.716Z,15.72
2023-04-09T13:46:24.896Z,15.01
2023-04-09T13:51:34.781Z,15.12
2023-04-09T13:56:42.609Z,15.03
2023-04-09T14:01:47.769Z,15.00
2023-04-09T14:06:55.192Z,15.27
2023-04-09T14:12:03.146Z,14.22
2023-04-09T14:17:08.332Z,15.30
2023-04-09T14:22:13.568Z,14.76
2023-04-09T14:27:23.981Z,14.98
2023-04-09T14:32:29.292Z,14.94
2023-04-09T14:37:34.537Z,15.05
2023-04-09T14:42:42.402Z,14.46
2023-04-09T14:47:47.532Z,14.22
2023-04-09T14:52:52.738Z,13.92
2023-04-09T14:58:01.842Z,14.65
2023-04-09T15:03:07.660Z,15.24
2023-04-09T15:08:13.395Z,15.45
2023-04-09T15:13:21.375Z,15.58
2023-04-09T15:18:26.529Z,14.55
2023-04-09T15:23:31.684Z,14.64
2023-04-09T15:28:39.372Z,14.12
2023-04-09T15:33:47.272Z,14.89
2023-04-09T15:38:52.695Z,15.00
2023-04-09T15:44:00.728Z,14.63
2023-04-09T15:49:07.632Z,14.80
2023-04-09T15:54:12.853Z,14.05
2023-04-09T15:59:21.880Z,14.02
2023-04-09T16:04:28.956Z,13.75
2023-04-09T16:09:34.195Z,13.49
2023-04-09T16:14:42.659Z,13.71
2023-04-09T16:19:48.125Z,13.79
2023-04-09T16:24:53.223Z,13.37
2023-04-09T16:30:01.352Z,13.25
2023-04-09T16:35:06.796Z,13.25
2023-04-09T16:40:15.033Z,13.61
2023-04-09T16:45:22.757Z,13.30
2023-04-09T16:50:27.879Z,13.49
2023-04-09T16:55:33.016Z,13.37
2023-04-09T17:00:41.114Z,13.54
2023-04-09T17:05:51.405Z,13.16
2023-04-09T17:11:02.545Z,12.70
2023-04-09T17:16:12.012Z,12.91
2023-04-09T17:21:17.302Z,13.12
2023-04-09T17:26:22.686Z,13.56
2023-04-09T17:31:33.496Z,12.97
2023-04-09T17:36:38.613Z,13.11
2023-04-09T17:41:46.131Z,13.03
2023-04-09T17:46:54.443Z,13.13
2023-04-09T17:51:59.640Z,12.88
2023-04-09T17:57:07.508Z,12.97
2023-04-09T18:02:15.372Z,12.80
2023-04-09T18:07:21.519Z,12.38
2023-04-09T18:12:26.704Z,12.27
2023-04-09T18:17:34.612Z,12.11
2023-04-09T18:22:39.840Z,11.97
2023-04-09T18:27:45.012Z,11.79
2023-04-09T18:32:52.872Z,11.91
2023-04-09T18:37:58.120Z,11.85
2023-04-09T18:43:03.353Z,12.05
2023-04-09T18:48:11.670Z,12.15
2023-04-09T18:53:17.207Z,12.12
2023-04-09T18:58:23.178Z,12.07
2023-04-09T19:03:31.358Z,11.60
2023-04-09T19:08:38.418Z,11.74
2023-04-09T19:13:45.397Z,12.21
2023-04-09T19:18:54.043Z,11.87
2023-04-09T19:24:00.357Z,11.91
2023-04-09T19:29:05.780Z,11.78
2023-04-09T19:34:13.755Z,11.84
2023-04-09T19:39:19.128Z,11.17
2023-04-09T19:44:24.351Z,10.81
2023-04-09T19:49:32.350Z,10.66
2023-04-09T19:54:38.267Z,10.53
2023-04-09T19:59:44.082Z,10.87
2023-04-09T20:04:52.922Z,10.52
2023-04-09T20:09:58.496Z,10.42
2023-04-09T20:15:06.941Z,10.74
2023-04-09T20:20:18.154Z,10.35
2023-04-09T20:25:24.043Z,9.94
2023-04-09T20:30:29.403Z,10.08
2023-04-09T20:35:42.356Z,9.89
2023-04-09T20:40:48.121Z,9.64
2023-04-09T20:45:53.205Z,9.48
2023-04-09T20:51:01.681Z,9.55
2023-04-09T20:56:07.534Z,9.46
2023-04-09T21:01:13.469Z,9.28
2023-04-09T21:06:22.250Z,9.34
2023-04-09T21:11:27.347Z,9.47
2023-04-09T21:16:40.911Z,9.53
2023-04-09T21:21:48.928Z,9.60
2023-04-09T21:26:54.153Z,9.52
2023-04-09T21:31:59.248Z,9.35
2023-04-09T21:37:08.700Z,9.17
2023-04-09T21:42:13.850Z,9.32
2023-04-09T21:47:19.090Z,9.78
2023-04-09T21:52:28.341Z,9.47
2023-04-09T21:57:33.604Z,9.37
2023-04-09T22:02:38.918Z,9.47
2023-04-09T22:07:47.986Z,9.23
2023-04-09T22:12:53.529Z,9.09
2023-04-09T22:17:59.206Z,9.16
2023-04-09T22:23:08.970Z,8.86
2023-04-09T22:28:14.343Z,8.91
2023-04-09T22:33:19.605Z,8.45
2023-04-09T22:38:27.588Z,8.98
2023-04-09T22:43:32.740Z,8.53
2023-04-09T22:48:55.586Z,8.11
2023-04-09T22:54:03.533Z,8.02
2023-04-09T22:59:09.167Z,7.82
2023-04-09T23:04:14.515Z,7.70
2023-04-09T23:09:22.722Z,7.45
2023-04-09T23:14:28.040Z,7.49
2023-04-09T23:19:33.114Z,7.96
2023-04-09T23:24:41.134Z,7.55
2023-04-09T23:29:47.018Z,7.35
2023-04-09T23:34:52.280Z,7.06
2023-04-09T23:40:03.440Z,7.00
2023-04-09T23:45:11.925Z,6.81
2023-04-09T23:50:17.950Z,6.57
2023-04-09T23:55:25.993Z,6.18
